Terminal Aerodrome Forecast
Issued by NWS Wilmington, NC

Home | Current Version | Previous Version | Text Only | Print | Product List | Glossary On
Versions: 1 2 3 4 5 6 7 8 9 10 11 12 13 14 15 16 17
000
FTUS42 KILM 292337
TAFLBT
TAF
KLBT 292337Z 3000/3024 07008KT P6SM SCT250
     FM300400 VRB01KT P6SM OVC250
     FM301200 08003KT P6SM BKN050 BKN250
     FM301600 13006KT P6SM VCSH BKN050 OVC150=

USA.gov is the U.S. government's official web portal to all federal, state and local government web resources and services.